sensor_id;sensor_type;location;lat;lon;timestamp;temperature;humidity
69084;SHT31;56185;48.526;9.044;2022-09-01T00:00:57;15.64;83.78
69084;SHT31;56185;48.526;9.044;2022-09-01T00:03:22;15.68;82.92
69084;SHT31;56185;48.526;9.044;2022-09-01T00:05:48;15.58;84.66
69084;SHT31;56185;48.526;9.044;2022-09-01T00:08:14;15.62;83.13
69084;SHT31;56185;48.526;9.044;2022-09-01T00:10:39;15.75;83.30
69084;SHT31;56185;48.526;9.044;2022-09-01T00:13:05;15.71;82.85
69084;SHT31;56185;48.526;9.044;2022-09-01T00:15:30;15.58;83.20
69084;SHT31;56185;48.526;9.044;2022-09-01T00:17:56;15.48;84.00
69084;SHT31;56185;48.526;9.044;2022-09-01T00:20:21;15.79;83.07
69084;SHT31;56185;48.526;9.044;2022-09-01T00:22:47;15.68;83.12
69084;SHT31;56185;48.526;9.044;2022-09-01T00:25:12;15.58;83.55
69084;SHT31;56185;48.526;9.044;2022-09-01T00:27:37;15.52;83.80
69084;SHT31;56185;48.526;9.044;2022-09-01T00:30:03;15.48;83.86
69084;SHT31;56185;48.526;9.044;2022-09-01T00:32:28;15.45;83.55
69084;SHT31;56185;48.526;9.044;2022-09-01T00:34:54;15.47;83.16
69084;SHT31;56185;48.526;9.044;2022-09-01T00:37:19;15.38;84.07
69084;SHT31;56185;48.526;9.044;2022-09-01T00:39:44;15.31;84.58
69084;SHT31;56185;48.526;9.044;2022-09-01T00:42:10;15.24;84.15
69084;SHT31;56185;48.526;9.044;2022-09-01T00:44:35;15.17;85.76
69084;SHT31;56185;48.526;9.044;2022-09-01T00:47:01;15.33;83.82
69084;SHT31;56185;48.526;9.044;2022-09-01T00:49:40;15.30;83.76
69084;SHT31;56185;48.526;9.044;2022-09-01T00:52:22;15.38;83.32
69084;SHT31;56185;48.526;9.044;2022-09-01T00:54:54;15.41;84.02
69084;SHT31;56185;48.526;9.044;2022-09-01T00:57:20;15.30;83.35
69084;SHT31;56185;48.526;9.044;2022-09-01T00:59:56;15.26;84.09
69084;SHT31;56185;48.526;9.044;2022-09-01T01:02:22;15.31;83.03
69084;SHT31;56185;48.526;9.044;2022-09-01T01:04:47;15.34;83.92
69084;SHT31;56185;48.526;9.044;2022-09-01T01:07:14;15.24;83.67
69084;SHT31;56185;48.526;9.044;2022-09-01T01:09:43;15.13;83.86
69084;SHT31;56185;48.526;9.044;2022-09-01T01:12:09;15.13;83.58
69084;SHT31;56185;48.526;9.044;2022-09-01T01:14:34;15.10;84.19
69084;SHT31;56185;48.526;9.044;2022-09-01T01:17:00;15.04;83.91
69084;SHT31;56185;48.526;9.044;2022-09-01T01:19:41;15.07;83.25
69084;SHT31;56185;48.526;9.044;2022-09-01T01:22:12;15.11;83.60
69084;SHT31;56185;48.526;9.044;2022-09-01T01:24:40;15.06;84.01
69084;SHT31;56185;48.526;9.044;2022-09-01T01:27:05;15.04;84.58
69084;SHT31;56185;48.526;9.044;2022-09-01T01:29:33;14.97;84.04
69084;SHT31;56185;48.526;9.044;2022-09-01T01:31:59;14.87;84.21
69084;SHT31;56185;48.526;9.044;2022-09-01T01:34:24;14.87;84.29
69084;SHT31;56185;48.526;9.044;2022-09-01T01:36:50;14.93;84.55
69084;SHT31;56185;48.526;9.044;2022-09-01T01:39:21;15.08;83.82
69084;SHT31;56185;48.526;9.044;2022-09-01T01:41:47;14.99;84.13
69084;SHT31;56185;48.526;9.044;2022-09-01T01:44:15;15.14;83.37
69084;SHT31;56185;48.526;9.044;2022-09-01T01:46:46;14.94;83.44
69084;SHT31;56185;48.526;9.044;2022-09-01T01:49:14;15.00;82.24
69084;SHT31;56185;48.526;9.044;2022-09-01T01:51:39;15.00;82.59
69084;SHT31;56185;48.526;9.044;2022-09-01T01:54:05;14.82;82.85
69084;SHT31;56185;48.526;9.044;2022-09-01T01:56:32;14.80;84.44
69084;SHT31;56185;48.526;9.044;2022-09-01T01:58:58;14.69;84.68
69084;SHT31;56185;48.526;9.044;2022-09-01T02:01:28;14.73;84.76
69084;SHT31;56185;48.526;9.044;2022-09-01T02:03:55;14.72;85.64
69084;SHT31;56185;48.526;9.044;2022-09-01T02:06:22;14.73;86.18
69084;SHT31;56185;48.526;9.044;2022-09-01T02:08:48;14.75;85.82
69084;SHT31;56185;48.526;9.044;2022-09-01T02:11:13;14.86;86.00
69084;SHT31;56185;48.526;9.044;2022-09-01T02:13:38;14.99;85.16
69084;SHT31;56185;48.526;9.044;2022-09-01T02:16:06;15.10;84.07
69084;SHT31;56185;48.526;9.044;2022-09-01T02:18:36;15.04;82.64
69084;SHT31;56185;48.526;9.044;2022-09-01T02:21:04;14.87;84.51
69084;SHT31;56185;48.526;9.044;2022-09-01T02:23:30;14.92;83.49
69084;SHT31;56185;48.526;9.044;2022-09-01T02:25:57;14.80;84.01
69084;SHT31;56185;48.526;9.044;2022-09-01T02:28:22;14.89;83.19
69084;SHT31;56185;48.526;9.044;2022-09-01T02:30:50;14.96;82.51
69084;SHT31;56185;48.526;9.044;2022-09-01T02:33:17;14.99;82.31
69084;SHT31;56185;48.526;9.044;2022-09-01T02:35:42;14.97;82.48
69084;SHT31;56185;48.526;9.044;2022-09-01T02:38:07;14.96;82.67
69084;SHT31;56185;48.526;9.044;2022-09-01T02:40:32;15.07;82.69
69084;SHT31;56185;48.526;9.044;2022-09-01T02:42:59;15.19;81.89
69084;SHT31;56185;48.526;9.044;2022-09-01T02:45:28;15.00;82.66
69084;SHT31;56185;48.526;9.044;2022-09-01T02:47:53;14.94;82.37
69084;SHT31;56185;48.526;9.044;2022-09-01T02:50:19;14.82;83.10
69084;SHT31;56185;48.526;9.044;2022-09-01T02:52:45;14.85;82.96
69084;SHT31;56185;48.526;9.044;2022-09-01T02:55:10;14.82;82.28
69084;SHT31;56185;48.526;9.044;2022-09-01T02:57:36;14.76;82.41
69084;SHT31;56185;48.526;9.044;2022-09-01T03:00:04;14.76;82.93
69084;SHT31;56185;48.526;9.044;2022-09-01T03:02:30;14.80;82.14
69084;SHT31;56185;48.526;9.044;2022-09-01T03:04:55;14.80;82.19
69084;SHT31;56185;48.526;9.044;2022-09-01T03:07:21;14.71;81.45
69084;SHT31;56185;48.526;9.044;2022-09-01T03:09:46;14.75;81.55
69084;SHT31;56185;48.526;9.044;2022-09-01T03:12:11;14.73;81.87
69084;SHT31;56185;48.526;9.044;2022-09-01T03:14:36;14.63;81.05
69084;SHT31;56185;48.526;9.044;2022-09-01T03:17:02;14.68;81.24
69084;SHT31;56185;48.526;9.044;2022-09-01T03:19:27;14.69;80.77
69084;SHT31;56185;48.526;9.044;2022-09-01T03:21:52;14.61;81.28
69084;SHT31;56185;48.526;9.044;2022-09-01T03:24:18;14.62;80.91
69084;SHT31;56185;48.526;9.044;2022-09-01T03:26:44;14.51;81.49
69084;SHT31;56185;48.526;9.044;2022-09-01T03:29:10;14.51;81.88
69084;SHT31;56185;48.526;9.044;2022-09-01T03:31:36;14.66;82.48
69084;SHT31;56185;48.526;9.044;2022-09-01T03:34:03;14.51;83.12
69084;SHT31;56185;48.526;9.044;2022-09-01T03:36:29;14.49;83.19
69084;SHT31;56185;48.526;9.044;2022-09-01T03:38:54;14.51;83.08
69084;SHT31;56185;48.526;9.044;2022-09-01T03:41:25;14.41;84.00
69084;SHT31;56185;48.526;9.044;2022-09-01T03:43:51;14.86;82.22
69084;SHT31;56185;48.526;9.044;2022-09-01T03:46:17;14.52;84.77
69084;SHT31;56185;48.526;9.044;2022-09-01T03:48:42;14.48;84.19
69084;SHT31;56185;48.526;9.044;2022-09-01T03:51:07;14.44;84.59
69084;SHT31;56185;48.526;9.044;2022-09-01T03:53:34;14.52;84.52
69084;SHT31;56185;48.526;9.044;2022-09-01T03:56:01;14.46;84.30
69084;SHT31;56185;48.526;9.044;2022-09-01T03:58:26;14.56;86.36
69084;SHT31;56185;48.526;9.044;2022-09-01T04:03:19;14.41;85.20
69084;SHT31;56185;48.526;9.044;2022-09-01T04:05:44;14.36;85.02
69084;SHT31;56185;48.526;9.044;2022-09-01T04:08:11;14.38;85.25
69084;SHT31;56185;48.526;9.044;2022-09-01T04:10:48;14.55;84.16
69084;SHT31;56185;48.526;9.044;2022-09-01T04:13:16;14.49;84.57
69084;SHT31;56185;48.526;9.044;2022-09-01T04:15:41;14.42;84.93
69084;SHT31;56185;48.526;9.044;2022-09-01T04:18:07;14.58;85.06
69084;SHT31;56185;48.526;9.044;2022-09-01T04:20:32;14.56;84.59
69084;SHT31;56185;48.526;9.044;2022-09-01T04:22:57;14.61;84.85
69084;SHT31;56185;48.526;9.044;2022-09-01T04:25:22;14.71;83.45
69084;SHT31;56185;48.526;9.044;2022-09-01T04:27:49;14.69;83.74
69084;SHT31;56185;48.526;9.044;2022-09-01T04:30:15;14.75;83.59
69084;SHT31;56185;48.526;9.044;2022-09-01T04:32:40;14.92;84.12
69084;SHT31;56185;48.526;9.044;2022-09-01T04:35:06;14.82;84.01
69084;SHT31;56185;48.526;9.044;2022-09-01T04:37:32;14.82;84.08
69084;SHT31;56185;48.526;9.044;2022-09-01T04:39:57;14.92;83.21
69084;SHT31;56185;48.526;9.044;2022-09-01T04:42:25;14.99;82.77
69084;SHT31;56185;48.526;9.044;2022-09-01T04:44:51;14.97;84.03
69084;SHT31;56185;48.526;9.044;2022-09-01T04:47:17;15.07;83.06
69084;SHT31;56185;48.526;9.044;2022-09-01T04:49:42;14.92;82.87
69084;SHT31;56185;48.526;9.044;2022-09-01T04:52:08;14.97;83.41
69084;SHT31;56185;48.526;9.044;2022-09-01T04:54:33;14.99;82.96
69084;SHT31;56185;48.526;9.044;2022-09-01T04:56:58;15.00;82.56
69084;SHT31;56185;48.526;9.044;2022-09-01T04:59:24;15.00;82.45
69084;SHT31;56185;48.526;9.044;2022-09-01T05:01:50;14.96;83.11
69084;SHT31;56185;48.526;9.044;2022-09-01T05:04:18;14.87;83.42
69084;SHT31;56185;48.526;9.044;2022-09-01T05:06:46;14.86;83.82
69084;SHT31;56185;48.526;9.044;2022-09-01T05:09:12;14.83;83.50
69084;SHT31;56185;48.526;9.044;2022-09-01T05:11:39;14.85;83.24
69084;SHT31;56185;48.526;9.044;2022-09-01T05:14:05;14.79;84.33
69084;SHT31;56185;48.526;9.044;2022-09-01T05:16:30;14.77;85.10
69084;SHT31;56185;48.526;9.044;2022-09-01T05:18:55;14.79;84.15
69084;SHT31;56185;48.526;9.044;2022-09-01T05:21:21;14.77;84.60
69084;SHT31;56185;48.526;9.044;2022-09-01T05:23:47;14.89;84.24
69084;SHT31;56185;48.526;9.044;2022-09-01T05:26:17;15.08;83.56
69084;SHT31;56185;48.526;9.044;2022-09-01T05:28:45;14.97;83.67
69084;SHT31;56185;48.526;9.044;2022-09-01T05:31:10;14.85;83.90
69084;SHT31;56185;48.526;9.044;2022-09-01T05:33:36;14.86;84.22
69084;SHT31;56185;48.526;9.044;2022-09-01T05:36:02;14.92;84.55
69084;SHT31;56185;48.526;9.044;2022-09-01T05:38:28;15.02;83.45
69084;SHT31;56185;48.526;9.044;2022-09-01T05:40:58;14.90;84.46
69084;SHT31;56185;48.526;9.044;2022-09-01T05:43:23;14.94;84.15
69084;SHT31;56185;48.526;9.044;2022-09-01T05:45:49;15.17;83.61
69084;SHT31;56185;48.526;9.044;2022-09-01T05:48:14;15.19;84.22
69084;SHT31;56185;48.526;9.044;2022-09-01T05:50:40;15.22;83.56
69084;SHT31;56185;48.526;9.044;2022-09-01T05:53:05;15.28;83.08
69084;SHT31;56185;48.526;9.044;2022-09-01T05:55:30;15.20;83.07
69084;SHT31;56185;48.526;9.044;2022-09-01T05:57:55;15.20;83.22
69084;SHT31;56185;48.526;9.044;2022-09-01T06:00:21;15.10;83.18
69084;SHT31;56185;48.526;9.044;2022-09-01T06:02:46;15.06;83.74
69084;SHT31;56185;48.526;9.044;2022-09-01T06:05:11;15.04;83.59
69084;SHT31;56185;48.526;9.044;2022-09-01T06:07:37;15.11;83.45
69084;SHT31;56185;48.526;9.044;2022-09-01T06:10:03;15.10;84.00
69084;SHT31;56185;48.526;9.044;2022-09-01T06:12:28;15.14;83.76
69084;SHT31;56185;48.526;9.044;2022-09-01T06:14:54;15.16;83.80
69084;SHT31;56185;48.526;9.044;2022-09-01T06:17:22;15.22;84.07
69084;SHT31;56185;48.526;9.044;2022-09-01T06:19:47;15.23;84.26
69084;SHT31;56185;48.526;9.044;2022-09-01T06:22:13;15.37;83.54
69084;SHT31;56185;48.526;9.044;2022-09-01T06:24:38;15.40;83.27
69084;SHT31;56185;48.526;9.044;2022-09-01T06:27:04;15.41;83.12
69084;SHT31;56185;48.526;9.044;2022-09-01T06:29:30;15.37;83.48
69084;SHT31;56185;48.526;9.044;2022-09-01T06:31:55;15.50;83.31
69084;SHT31;56185;48.526;9.044;2022-09-01T06:34:20;15.55;83.00
69084;SHT31;56185;48.526;9.044;2022-09-01T06:36:47;15.48;84.14
69084;SHT31;56185;48.526;9.044;2022-09-01T06:39:13;15.47;84.03
69084;SHT31;56185;48.526;9.044;2022-09-01T06:41:38;15.43;84.64
69084;SHT31;56185;48.526;9.044;2022-09-01T06:44:03;15.48;84.43
69084;SHT31;56185;48.526;9.044;2022-09-01T06:46:28;15.50;84.59
69084;SHT31;56185;48.526;9.044;2022-09-01T06:48:55;15.61;83.77
69084;SHT31;56185;48.526;9.044;2022-09-01T06:51:21;15.66;83.12
69084;SHT31;56185;48.526;9.044;2022-09-01T06:53:48;15.71;82.97
69084;SHT31;56185;48.526;9.044;2022-09-01T06:56:14;15.72;82.88
69084;SHT31;56185;48.526;9.044;2022-09-01T06:58:41;15.79;83.05
69084;SHT31;56185;48.526;9.044;2022-09-01T07:01:08;15.79;82.97
69084;SHT31;56185;48.526;9.044;2022-09-01T07:03:34;15.85;82.76
69084;SHT31;56185;48.526;9.044;2022-09-01T07:05:59;15.75;83.06
69084;SHT31;56185;48.526;9.044;2022-09-01T07:08:28;15.83;83.86
69084;SHT31;56185;48.526;9.044;2022-09-01T07:10:54;15.96;83.17
69084;SHT31;56185;48.526;9.044;2022-09-01T07:13:21;16.01;82.85
69084;SHT31;56185;48.526;9.044;2022-09-01T07:15:46;15.91;83.03
69084;SHT31;56185;48.526;9.044;2022-09-01T07:18:11;16.05;83.94
69084;SHT31;56185;48.526;9.044;2022-09-01T07:20:39;16.17;83.34
69084;SHT31;56185;48.526;9.044;2022-09-01T07:23:05;16.03;83.16
69084;SHT31;56185;48.526;9.044;2022-09-01T07:25:31;16.17;82.78
69084;SHT31;56185;48.526;9.044;2022-09-01T07:27:56;16.22;83.21
69084;SHT31;56185;48.526;9.044;2022-09-01T07:30:22;16.22;82.44
69084;SHT31;56185;48.526;9.044;2022-09-01T07:32:48;16.39;82.08
69084;SHT31;56185;48.526;9.044;2022-09-01T07:35:16;16.54;83.00
69084;SHT31;56185;48.526;9.044;2022-09-01T07:37:41;16.49;82.99
69084;SHT31;56185;48.526;9.044;2022-09-01T07:40:10;16.60;82.02
69084;SHT31;56185;48.526;9.044;2022-09-01T07:42:35;16.67;82.74
69084;SHT31;56185;48.526;9.044;2022-09-01T07:45:01;16.77;81.78
69084;SHT31;56185;48.526;9.044;2022-09-01T07:47:27;16.78;82.37
69084;SHT31;56185;48.526;9.044;2022-09-01T07:49:52;16.89;82.14
69084;SHT31;56185;48.526;9.044;2022-09-01T07:52:17;16.81;82.30
69084;SHT31;56185;48.526;9.044;2022-09-01T07:54:42;16.82;81.49
69084;SHT31;56185;48.526;9.044;2022-09-01T07:57:08;16.89;81.09
69084;SHT31;56185;48.526;9.044;2022-09-01T07:59:33;16.95;81.39
69084;SHT31;56185;48.526;9.044;2022-09-01T08:01:58;17.02;81.13
69084;SHT31;56185;48.526;9.044;2022-09-01T08:04:23;17.05;81.52
69084;SHT31;56185;48.526;9.044;2022-09-01T08:06:49;17.05;81.42
69084;SHT31;56185;48.526;9.044;2022-09-01T08:09:14;17.19;81.97
69084;SHT31;56185;48.526;9.044;2022-09-01T08:11:40;17.35;80.77
69084;SHT31;56185;48.526;9.044;2022-09-01T08:14:05;17.46;80.87
69084;SHT31;56185;48.526;9.044;2022-09-01T08:16:31;17.59;81.59
69084;SHT31;56185;48.526;9.044;2022-09-01T08:18:56;17.76;80.51
69084;SHT31;56185;48.526;9.044;2022-09-01T08:21:22;17.90;79.39
69084;SHT31;56185;48.526;9.044;2022-09-01T08:23:53;17.98;78.87
69084;SHT31;56185;48.526;9.044;2022-09-01T08:26:21;18.08;79.19
69084;SHT31;56185;48.526;9.044;2022-09-01T08:28:47;18.17;79.94
69084;SHT31;56185;48.526;9.044;2022-09-01T08:31:15;18.37;78.78
69084;SHT31;56185;48.526;9.044;2022-09-01T08:33:41;18.34;76.93
69084;SHT31;56185;48.526;9.044;2022-09-01T08:36:08;18.44;77.43
69084;SHT31;56185;48.526;9.044;2022-09-01T08:38:34;18.52;76.39
69084;SHT31;56185;48.526;9.044;2022-09-01T08:41:00;18.58;77.48
69084;SHT31;56185;48.526;9.044;2022-09-01T08:46:18;18.80;75.80
69084;SHT31;56185;48.526;9.044;2022-09-01T08:48:52;18.80;75.44
69084;SHT31;56185;48.526;9.044;2022-09-01T08:56:29;18.93;74.55
69084;SHT31;56185;48.526;9.044;2022-09-01T08:58:57;19.21;73.66
69084;SHT31;56185;48.526;9.044;2022-09-01T09:01:36;19.34;73.82
69084;SHT31;56185;48.526;9.044;2022-09-01T09:04:13;19.51;71.82
69084;SHT31;56185;48.526;9.044;2022-09-01T09:09:37;19.74;71.74
69084;SHT31;56185;48.526;9.044;2022-09-01T09:12:46;19.83;71.59
69084;SHT31;56185;48.526;9.044;2022-09-01T09:17:46;19.81;72.21
69084;SHT31;56185;48.526;9.044;2022-09-01T09:20:13;19.78;71.82
69084;SHT31;56185;48.526;9.044;2022-09-01T09:22:39;19.82;71.64
69084;SHT31;56185;48.526;9.044;2022-09-01T09:25:11;19.83;70.36
69084;SHT31;56185;48.526;9.044;2022-09-01T09:27:43;19.83;70.83
69084;SHT31;56185;48.526;9.044;2022-09-01T09:30:13;19.81;71.58
69084;SHT31;56185;48.526;9.044;2022-09-01T09:32:57;19.79;71.15
69084;SHT31;56185;48.526;9.044;2022-09-01T09:35:33;19.85;70.62
69084;SHT31;56185;48.526;9.044;2022-09-01T09:40:37;19.82;71.06
69084;SHT31;56185;48.526;9.044;2022-09-01T09:43:04;19.86;71.02
69084;SHT31;56185;48.526;9.044;2022-09-01T09:45:38;20.08;70.06
69084;SHT31;56185;48.526;9.044;2022-09-01T09:50:48;20.34;66.40
69084;SHT31;56185;48.526;9.044;2022-09-01T09:53:27;20.36;67.02
69084;SHT31;56185;48.526;9.044;2022-09-01T09:55:57;20.36;67.50
69084;SHT31;56185;48.526;9.044;2022-09-01T09:58:27;20.48;65.96
69084;SHT31;56185;48.526;9.044;2022-09-01T10:01:05;20.51;67.04
69084;SHT31;56185;48.526;9.044;2022-09-01T10:03:41;20.83;64.52
69084;SHT31;56185;48.526;9.044;2022-09-01T10:06:12;21.06;62.02
69084;SHT31;56185;48.526;9.044;2022-09-01T10:08:43;21.15;61.38
69084;SHT31;56185;48.526;9.044;2022-09-01T10:11:08;21.32;60.74
69084;SHT31;56185;48.526;9.044;2022-09-01T10:13:34;21.39;60.86
69084;SHT31;56185;48.526;9.044;2022-09-01T10:16:01;21.36;61.88
69084;SHT31;56185;48.526;9.044;2022-09-01T10:18:38;21.59;61.11
69084;SHT31;56185;48.526;9.044;2022-09-01T10:21:11;21.66;61.27
69084;SHT31;56185;48.526;9.044;2022-09-01T10:23:37;21.69;60.59
69084;SHT31;56185;48.526;9.044;2022-09-01T10:26:18;21.62;61.19
69084;SHT31;56185;48.526;9.044;2022-09-01T10:28:57;21.69;59.91
69084;SHT31;56185;48.526;9.044;2022-09-01T10:31:23;21.64;58.27
69084;SHT31;56185;48.526;9.044;2022-09-01T10:33:49;21.76;59.75
69084;SHT31;56185;48.526;9.044;2022-09-01T10:36:14;21.93;58.87
69084;SHT31;56185;48.526;9.044;2022-09-01T10:38:41;22.11;59.50
69084;SHT31;56185;48.526;9.044;2022-09-01T10:41:06;22.18;57.26
69084;SHT31;56185;48.526;9.044;2022-09-01T10:43:39;22.18;58.07
69084;SHT31;56185;48.526;9.044;2022-09-01T10:48:55;22.41;55.66
69084;SHT31;56185;48.526;9.044;2022-09-01T10:53:51;22.45;56.06
69084;SHT31;56185;48.526;9.044;2022-09-01T10:56:37;22.51;55.07
69084;SHT31;56185;48.526;9.044;2022-09-01T11:04:20;22.85;53.27
69084;SHT31;56185;48.526;9.044;2022-09-01T11:07:02;22.95;55.20
69084;SHT31;56185;48.526;9.044;2022-09-01T11:11:59;23.34;54.79
69084;SHT31;56185;48.526;9.044;2022-09-01T11:14:27;23.27;53.83
69084;SHT31;56185;48.526;9.044;2022-09-01T11:19:56;22.98;54.61
69084;SHT31;56185;48.526;9.044;2022-09-01T11:33:08;22.83;54.92
69084;SHT31;56185;48.526;9.044;2022-09-01T11:35:35;22.92;54.67
69084;SHT31;56185;48.526;9.044;2022-09-01T11:38:02;22.75;54.66
69084;SHT31;56185;48.526;9.044;2022-09-01T11:40:33;22.98;55.64
69084;SHT31;56185;48.526;9.044;2022-09-01T11:43:03;23.02;54.85
69084;SHT31;56185;48.526;9.044;2022-09-01T11:45:31;23.02;54.50
69084;SHT31;56185;48.526;9.044;2022-09-01T11:48:08;22.92;53.65
69084;SHT31;56185;48.526;9.044;2022-09-01T11:50:36;22.81;54.97
69084;SHT31;56185;48.526;9.044;2022-09-01T11:53:09;22.76;53.58
69084;SHT31;56185;48.526;9.044;2022-09-01T11:58:03;23.04;53.16
69084;SHT31;56185;48.526;9.044;2022-09-01T12:00:38;23.16;53.18
69084;SHT31;56185;48.526;9.044;2022-09-01T12:03:18;23.37;52.44
69084;SHT31;56185;48.526;9.044;2022-09-01T12:05:46;23.58;52.45
69084;SHT31;56185;48.526;9.044;2022-09-01T12:08:14;23.81;52.62
69084;SHT31;56185;48.526;9.044;2022-09-01T12:10:41;23.94;51.99
69084;SHT31;56185;48.526;9.044;2022-09-01T12:15:40;24.05;50.77
69084;SHT31;56185;48.526;9.044;2022-09-01T12:18:19;24.09;51.06
69084;SHT31;56185;48.526;9.044;2022-09-01T12:20:47;24.28;48.41
69084;SHT31;56185;48.526;9.044;2022-09-01T12:23:29;24.35;47.20
69084;SHT31;56185;48.526;9.044;2022-09-01T12:25:57;24.08;48.59
69084;SHT31;56185;48.526;9.044;2022-09-01T12:28:26;23.92;48.35
69084;SHT31;56185;48.526;9.044;2022-09-01T12:30:53;23.64;49.82
69084;SHT31;56185;48.526;9.044;2022-09-01T12:33:19;23.79;50.21
69084;SHT31;56185;48.526;9.044;2022-09-01T12:35:45;23.98;50.13
69084;SHT31;56185;48.526;9.044;2022-09-01T12:40:53;24.26;48.93
69084;SHT31;56185;48.526;9.044;2022-09-01T12:43:36;24.33;48.07
69084;SHT31;56185;48.526;9.044;2022-09-01T12:46:02;24.41;49.00
69084;SHT31;56185;48.526;9.044;2022-09-01T12:48:33;24.52;47.85
69084;SHT31;56185;48.526;9.044;2022-09-01T12:51:01;24.60;47.18
69084;SHT31;56185;48.526;9.044;2022-09-01T12:53:30;24.66;47.18
69084;SHT31;56185;48.526;9.044;2022-09-01T12:56:01;24.80;47.16
69084;SHT31;56185;48.526;9.044;2022-09-01T12:58:28;24.88;45.69
69084;SHT31;56185;48.526;9.044;2022-09-01T13:01:06;24.88;45.28
69084;SHT31;56185;48.526;9.044;2022-09-01T13:03:33;24.71;46.55
69084;SHT31;56185;48.526;9.044;2022-09-01T13:06:00;24.71;46.63
69084;SHT31;56185;48.526;9.044;2022-09-01T13:08:33;24.87;45.70
69084;SHT31;56185;48.526;9.044;2022-09-01T13:11:08;24.76;45.27
69084;SHT31;56185;48.526;9.044;2022-09-01T13:13:34;24.97;45.60
69084;SHT31;56185;48.526;9.044;2022-09-01T13:16:01;25.05;45.55
69084;SHT31;56185;48.526;9.044;2022-09-01T13:18:27;25.14;46.16
69084;SHT31;56185;48.526;9.044;2022-09-01T13:20:53;25.29;46.92
69084;SHT31;56185;48.526;9.044;2022-09-01T13:23:19;25.01;46.82
69084;SHT31;56185;48.526;9.044;2022-09-01T13:25:45;24.92;46.89
69084;SHT31;56185;48.526;9.044;2022-09-01T13:28:12;24.67;47.77
69084;SHT31;56185;48.526;9.044;2022-09-01T13:30:38;24.50;48.64
69084;SHT31;56185;48.526;9.044;2022-09-01T13:33:04;24.37;49.33
69084;SHT31;56185;48.526;9.044;2022-09-01T13:35:30;24.29;49.15
69084;SHT31;56185;48.526;9.044;2022-09-01T13:37:55;24.61;49.16
69084;SHT31;56185;48.526;9.044;2022-09-01T13:40:21;24.63;47.76
69084;SHT31;56185;48.526;9.044;2022-09-01T13:42:49;24.73;48.40
69084;SHT31;56185;48.526;9.044;2022-09-01T13:45:16;25.08;47.93
69084;SHT31;56185;48.526;9.044;2022-09-01T13:47:43;25.19;46.30
69084;SHT31;56185;48.526;9.044;2022-09-01T13:50:10;25.14;46.55
69084;SHT31;56185;48.526;9.044;2022-09-01T13:52:46;25.08;47.20
69084;SHT31;56185;48.526;9.044;2022-09-01T13:55:16;24.81;47.39
69084;SHT31;56185;48.526;9.044;2022-09-01T13:57:51;24.64;47.58
69084;SHT31;56185;48.526;9.044;2022-09-01T14:00:32;24.61;47.11
69084;SHT31;56185;48.526;9.044;2022-09-01T14:03:05;24.49;48.18
69084;SHT31;56185;48.526;9.044;2022-09-01T14:05:35;24.56;47.77
69084;SHT31;56185;48.526;9.044;2022-09-01T14:08:01;24.71;47.40
69084;SHT31;56185;48.526;9.044;2022-09-01T14:10:28;24.86;48.24
69084;SHT31;56185;48.526;9.044;2022-09-01T14:12:54;24.94;47.35
69084;SHT31;56185;48.526;9.044;2022-09-01T14:15:20;25.05;47.99
69084;SHT31;56185;48.526;9.044;2022-09-01T14:17:49;25.27;47.38
69084;SHT31;56185;48.526;9.044;2022-09-01T14:20:19;25.14;47.44
69084;SHT31;56185;48.526;9.044;2022-09-01T14:22:45;25.32;46.95
69084;SHT31;56185;48.526;9.044;2022-09-01T14:25:11;25.27;46.66
69084;SHT31;56185;48.526;9.044;2022-09-01T14:27:37;25.43;47.12
69084;SHT31;56185;48.526;9.044;2022-09-01T14:30:08;25.55;46.46
69084;SHT31;56185;48.526;9.044;2022-09-01T14:32:33;25.56;45.29
69084;SHT31;56185;48.526;9.044;2022-09-01T14:34:59;25.50;45.52
69084;SHT31;56185;48.526;9.044;2022-09-01T14:37:25;25.59;46.44
69084;SHT31;56185;48.526;9.044;2022-09-01T14:39:55;25.73;45.97
69084;SHT31;56185;48.526;9.044;2022-09-01T14:42:22;25.43;44.97
69084;SHT31;56185;48.526;9.044;2022-09-01T14:44:47;25.29;46.12
69084;SHT31;56185;48.526;9.044;2022-09-01T14:47:13;25.15;45.56
69084;SHT31;56185;48.526;9.044;2022-09-01T14:49:39;24.99;46.35
69084;SHT31;56185;48.526;9.044;2022-09-01T14:52:05;25.12;46.21
69084;SHT31;56185;48.526;9.044;2022-09-01T14:54:36;25.22;46.94
69084;SHT31;56185;48.526;9.044;2022-09-01T14:57:02;25.35;46.69
69084;SHT31;56185;48.526;9.044;2022-09-01T14:59:27;25.41;45.88
69084;SHT31;56185;48.526;9.044;2022-09-01T15:01:52;25.39;46.16
69084;SHT31;56185;48.526;9.044;2022-09-01T15:04:18;25.05;46.29
69084;SHT31;56185;48.526;9.044;2022-09-01T15:06:43;25.18;46.56
69084;SHT31;56185;48.526;9.044;2022-09-01T15:09:08;25.29;47.37
69084;SHT31;56185;48.526;9.044;2022-09-01T15:11:34;25.49;47.35
69084;SHT31;56185;48.526;9.044;2022-09-01T15:13:59;25.65;47.35
69084;SHT31;56185;48.526;9.044;2022-09-01T15:16:25;25.73;46.59
69084;SHT31;56185;48.526;9.044;2022-09-01T15:18:51;25.79;46.49
69084;SHT31;56185;48.526;9.044;2022-09-01T15:21:25;25.82;46.19
69084;SHT31;56185;48.526;9.044;2022-09-01T15:23:51;25.76;46.47
69084;SHT31;56185;48.526;9.044;2022-09-01T15:26:16;25.66;47.79
69084;SHT31;56185;48.526;9.044;2022-09-01T15:28:43;25.52;46.87
69084;SHT31;56185;48.526;9.044;2022-09-01T15:31:08;25.58;46.78
69084;SHT31;56185;48.526;9.044;2022-09-01T15:33:33;25.53;46.30
69084;SHT31;56185;48.526;9.044;2022-09-01T15:35:59;25.38;46.37
69084;SHT31;56185;48.526;9.044;2022-09-01T15:38:24;25.34;46.96
69084;SHT31;56185;48.526;9.044;2022-09-01T15:40:49;25.24;46.70
69084;SHT31;56185;48.526;9.044;2022-09-01T15:43:14;25.01;47.05
69084;SHT31;56185;48.526;9.044;2022-09-01T15:45:40;24.86;46.64
69084;SHT31;56185;48.526;9.044;2022-09-01T15:48:05;24.61;48.08
69084;SHT31;56185;48.526;9.044;2022-09-01T15:50:31;24.52;47.51
69084;SHT31;56185;48.526;9.044;2022-09-01T15:53:01;24.22;47.00
69084;SHT31;56185;48.526;9.044;2022-09-01T15:55:30;24.22;48.23
69084;SHT31;56185;48.526;9.044;2022-09-01T15:58:00;24.20;46.97
69084;SHT31;56185;48.526;9.044;2022-09-01T16:00:27;24.23;47.64
69084;SHT31;56185;48.526;9.044;2022-09-01T16:02:52;24.32;47.86
69084;SHT31;56185;48.526;9.044;2022-09-01T16:05:17;24.20;47.58
69084;SHT31;56185;48.526;9.044;2022-09-01T16:07:43;24.13;48.42
69084;SHT31;56185;48.526;9.044;2022-09-01T16:10:11;24.15;48.93
69084;SHT31;56185;48.526;9.044;2022-09-01T16:12:42;24.05;48.93
69084;SHT31;56185;48.526;9.044;2022-09-01T16:15:09;24.04;48.62
69084;SHT31;56185;48.526;9.044;2022-09-01T16:20:20;23.97;48.72
69084;SHT31;56185;48.526;9.044;2022-09-01T16:22:59;23.97;49.03
69084;SHT31;56185;48.526;9.044;2022-09-01T16:25:32;23.88;49.29
69084;SHT31;56185;48.526;9.044;2022-09-01T16:28:11;23.85;48.58
69084;SHT31;56185;48.526;9.044;2022-09-01T16:30:39;23.86;48.65